sensor_id;sensor_type;location;lat;lon;timestamp;P1;durP1;ratioP1;P2;durP2;ratioP2
64826;SDS011;51265;53.972;12.286;2023-12-07T00:01:37;137.50;;;46.85;;
64826;SDS011;51265;53.972;12.286;2023-12-07T00:04:03;155.38;;;48.72;;
64826;SDS011;51265;53.972;12.286;2023-12-07T00:06:29;138.40;;;48.00;;
64826;SDS011;51265;53.972;12.286;2023-12-07T00:08:56;129.50;;;46.28;;
64826;SDS011;51265;53.972;12.286;2023-12-07T00:11:22;139.02;;;47.40;;
64826;SDS011;51265;53.972;12.286;2023-12-07T00:13:51;115.05;;;45.40;;
64826;SDS011;51265;53.972;12.286;2023-12-07T00:16:18;111.63;;;45.35;;
64826;SDS011;51265;53.972;12.286;2023-12-07T00:18:44;214.23;;;48.95;;
64826;SDS011;51265;53.972;12.286;2023-12-07T00:21:10;152.07;;;48.38;;
64826;SDS011;51265;53.972;12.286;2023-12-07T00:23:36;134.23;;;47.60;;
64826;SDS011;51265;53.972;12.286;2023-12-07T00:26:03;155.30;;;47.47;;
64826;SDS011;51265;53.972;12.286;2023-12-07T00:28:30;185.30;;;47.70;;
64826;SDS011;51265;53.972;12.286;2023-12-07T00:30:56;131.70;;;47.88;;
64826;SDS011;51265;53.972;12.286;2023-12-07T00:33:22;133.60;;;48.45;;
64826;SDS011;51265;53.972;12.286;2023-12-07T00:35:48;125.65;;;47.47;;
64826;SDS011;51265;53.972;12.286;2023-12-07T00:38:15;146.18;;;50.08;;
64826;SDS011;51265;53.972;12.286;2023-12-07T00:40:41;186.57;;;51.17;;
64826;SDS011;51265;53.972;12.286;2023-12-07T00:43:07;135.63;;;45.50;;
64826;SDS011;51265;53.972;12.286;2023-12-07T00:45:33;131.82;;;50.03;;
64826;SDS011;51265;53.972;12.286;2023-12-07T00:48:00;127.13;;;46.78;;
64826;SDS011;51265;53.972;12.286;2023-12-07T00:50:26;126.35;;;48.40;;
64826;SDS011;51265;53.972;12.286;2023-12-07T00:52:52;141.95;;;48.85;;
64826;SDS011;51265;53.972;12.286;2023-12-07T00:55:25;150.00;;;48.42;;
64826;SDS011;51265;53.972;12.286;2023-12-07T00:57:51;143.88;;;49.65;;
64826;SDS011;51265;53.972;12.286;2023-12-07T01:00:17;174.73;;;53.00;;
64826;SDS011;51265;53.972;12.286;2023-12-07T01:02:44;141.38;;;51.13;;
64826;SDS011;51265;53.972;12.286;2023-12-07T01:05:10;136.27;;;47.83;;
64826;SDS011;51265;53.972;12.286;2023-12-07T01:07:37;168.98;;;49.42;;
64826;SDS011;51265;53.972;12.286;2023-12-07T01:10:03;153.95;;;50.78;;
64826;SDS011;51265;53.972;12.286;2023-12-07T01:12:30;192.20;;;51.72;;
64826;SDS011;51265;53.972;12.286;2023-12-07T01:14:56;140.98;;;50.35;;
64826;SDS011;51265;53.972;12.286;2023-12-07T01:17:22;140.18;;;48.55;;
64826;SDS011;51265;53.972;12.286;2023-12-07T01:19:48;141.85;;;50.88;;
64826;SDS011;51265;53.972;12.286;2023-12-07T01:22:15;144.93;;;50.92;;
64826;SDS011;51265;53.972;12.286;2023-12-07T01:24:41;145.32;;;53.63;;
64826;SDS011;51265;53.972;12.286;2023-12-07T01:27:07;145.65;;;49.13;;
64826;SDS011;51265;53.972;12.286;2023-12-07T01:29:33;164.68;;;53.22;;
64826;SDS011;51265;53.972;12.286;2023-12-07T01:31:59;162.57;;;51.65;;
64826;SDS011;51265;53.972;12.286;2023-12-07T01:34:25;158.40;;;51.15;;
64826;SDS011;51265;53.972;12.286;2023-12-07T01:36:52;234.85;;;55.08;;
64826;SDS011;51265;53.972;12.286;2023-12-07T01:39:18;138.02;;;50.20;;
64826;SDS011;51265;53.972;12.286;2023-12-07T01:41:44;139.18;;;50.08;;
64826;SDS011;51265;53.972;12.286;2023-12-07T01:44:10;143.32;;;50.00;;
64826;SDS011;51265;53.972;12.286;2023-12-07T01:46:36;146.48;;;50.45;;
64826;SDS011;51265;53.972;12.286;2023-12-07T01:49:03;185.40;;;51.70;;
64826;SDS011;51265;53.972;12.286;2023-12-07T01:51:29;133.35;;;49.50;;
64826;SDS011;51265;53.972;12.286;2023-12-07T01:53:56;166.13;;;52.55;;
64826;SDS011;51265;53.972;12.286;2023-12-07T01:56:23;156.98;;;51.63;;
64826;SDS011;51265;53.972;12.286;2023-12-07T01:58:50;151.90;;;53.47;;
64826;SDS011;51265;53.972;12.286;2023-12-07T02:01:17;150.43;;;51.92;;
64826;SDS011;51265;53.972;12.286;2023-12-07T02:03:43;183.48;;;52.55;;
64826;SDS011;51265;53.972;12.286;2023-12-07T02:06:10;154.85;;;52.83;;
64826;SDS011;51265;53.972;12.286;2023-12-07T02:08:36;161.27;;;52.40;;
64826;SDS011;51265;53.972;12.286;2023-12-07T02:11:07;148.38;;;52.75;;
64826;SDS011;51265;53.972;12.286;2023-12-07T02:13:36;158.65;;;52.35;;
64826;SDS011;51265;53.972;12.286;2023-12-07T02:16:04;159.98;;;51.70;;
64826;SDS011;51265;53.972;12.286;2023-12-07T02:18:40;147.43;;;50.50;;
64826;SDS011;51265;53.972;12.286;2023-12-07T02:24:29;129.13;;;46.17;;
64826;SDS011;51265;53.972;12.286;2023-12-07T02:27:00;153.90;;;49.47;;
64826;SDS011;51265;53.972;12.286;2023-12-07T02:29:26;143.48;;;47.40;;
64826;SDS011;51265;53.972;12.286;2023-12-07T02:31:53;144.25;;;47.55;;
64826;SDS011;51265;53.972;12.286;2023-12-07T02:34:20;141.57;;;47.00;;
64826;SDS011;51265;53.972;12.286;2023-12-07T02:36:46;151.40;;;48.58;;
64826;SDS011;51265;53.972;12.286;2023-12-07T02:39:14;152.95;;;48.58;;
64826;SDS011;51265;53.972;12.286;2023-12-07T02:41:42;143.65;;;48.63;;
64826;SDS011;51265;53.972;12.286;2023-12-07T02:44:11;142.13;;;46.75;;
64826;SDS011;51265;53.972;12.286;2023-12-07T02:46:37;141.10;;;46.75;;
64826;SDS011;51265;53.972;12.286;2023-12-07T02:49:03;145.48;;;46.70;;
64826;SDS011;51265;53.972;12.286;2023-12-07T02:51:30;141.18;;;46.42;;
64826;SDS011;51265;53.972;12.286;2023-12-07T02:53:56;148.27;;;47.70;;
64826;SDS011;51265;53.972;12.286;2023-12-07T02:56:22;139.02;;;47.28;;
64826;SDS011;51265;53.972;12.286;2023-12-07T02:58:48;145.80;;;46.90;;
64826;SDS011;51265;53.972;12.286;2023-12-07T03:01:14;147.65;;;48.58;;
64826;SDS011;51265;53.972;12.286;2023-12-07T03:03:41;139.35;;;45.58;;
64826;SDS011;51265;53.972;12.286;2023-12-07T03:06:07;168.63;;;50.47;;
64826;SDS011;51265;53.972;12.286;2023-12-07T03:08:34;152.82;;;47.30;;
64826;SDS011;51265;53.972;12.286;2023-12-07T03:11:00;143.50;;;47.40;;
64826;SDS011;51265;53.972;12.286;2023-12-07T03:13:26;174.95;;;52.03;;
64826;SDS011;51265;53.972;12.286;2023-12-07T03:15:52;144.43;;;46.00;;
64826;SDS011;51265;53.972;12.286;2023-12-07T03:18:18;135.75;;;45.92;;
64826;SDS011;51265;53.972;12.286;2023-12-07T03:20:45;139.75;;;44.67;;
64826;SDS011;51265;53.972;12.286;2023-12-07T03:23:11;145.73;;;46.35;;
64826;SDS011;51265;53.972;12.286;2023-12-07T03:25:37;139.85;;;47.03;;
64826;SDS011;51265;53.972;12.286;2023-12-07T03:28:03;124.78;;;44.67;;
64826;SDS011;51265;53.972;12.286;2023-12-07T03:30:29;130.95;;;44.17;;
64826;SDS011;51265;53.972;12.286;2023-12-07T03:32:56;131.40;;;44.42;;
64826;SDS011;51265;53.972;12.286;2023-12-07T03:35:22;133.98;;;44.20;;
64826;SDS011;51265;53.972;12.286;2023-12-07T03:37:48;125.20;;;43.15;;
64826;SDS011;51265;53.972;12.286;2023-12-07T03:40:14;134.75;;;45.75;;
64826;SDS011;51265;53.972;12.286;2023-12-07T03:42:40;143.00;;;45.50;;
64826;SDS011;51265;53.972;12.286;2023-12-07T03:45:06;143.63;;;46.75;;
64826;SDS011;51265;53.972;12.286;2023-12-07T03:47:33;148.25;;;45.80;;
64826;SDS011;51265;53.972;12.286;2023-12-07T03:49:59;135.43;;;43.92;;
64826;SDS011;51265;53.972;12.286;2023-12-07T03:52:25;153.65;;;47.45;;
64826;SDS011;51265;53.972;12.286;2023-12-07T03:54:54;130.20;;;44.70;;
64826;SDS011;51265;53.972;12.286;2023-12-07T03:57:21;132.50;;;43.78;;
64826;SDS011;51265;53.972;12.286;2023-12-07T03:59:47;148.02;;;47.83;;
64826;SDS011;51265;53.972;12.286;2023-12-07T04:02:13;139.85;;;48.63;;
64826;SDS011;51265;53.972;12.286;2023-12-07T04:04:39;143.63;;;46.35;;
64826;SDS011;51265;53.972;12.286;2023-12-07T04:07:06;147.32;;;44.92;;
64826;SDS011;51265;53.972;12.286;2023-12-07T04:09:32;142.60;;;45.53;;
64826;SDS011;51265;53.972;12.286;2023-12-07T04:11:58;158.25;;;45.63;;
64826;SDS011;51265;53.972;12.286;2023-12-07T04:14:24;146.60;;;46.90;;
64826;SDS011;51265;53.972;12.286;2023-12-07T04:16:50;144.00;;;45.10;;
64826;SDS011;51265;53.972;12.286;2023-12-07T04:19:16;148.43;;;45.60;;
64826;SDS011;51265;53.972;12.286;2023-12-07T04:21:43;137.30;;;43.53;;
64826;SDS011;51265;53.972;12.286;2023-12-07T04:24:09;135.85;;;43.97;;
64826;SDS011;51265;53.972;12.286;2023-12-07T04:26:35;149.65;;;43.72;;
64826;SDS011;51265;53.972;12.286;2023-12-07T04:29:01;152.75;;;44.92;;
64826;SDS011;51265;53.972;12.286;2023-12-07T04:31:27;153.60;;;47.95;;
64826;SDS011;51265;53.972;12.286;2023-12-07T04:33:54;142.05;;;45.90;;
64826;SDS011;51265;53.972;12.286;2023-12-07T04:36:20;147.75;;;45.47;;
64826;SDS011;51265;53.972;12.286;2023-12-07T04:38:46;146.57;;;46.85;;
64826;SDS011;51265;53.972;12.286;2023-12-07T04:41:12;140.40;;;44.83;;
64826;SDS011;51265;53.972;12.286;2023-12-07T04:43:39;148.45;;;46.00;;
64826;SDS011;51265;53.972;12.286;2023-12-07T04:46:05;136.80;;;43.85;;
64826;SDS011;51265;53.972;12.286;2023-12-07T04:48:31;143.23;;;45.17;;
64826;SDS011;51265;53.972;12.286;2023-12-07T04:50:57;134.07;;;44.55;;
64826;SDS011;51265;53.972;12.286;2023-12-07T04:53:23;136.27;;;45.28;;
64826;SDS011;51265;53.972;12.286;2023-12-07T04:55:50;161.82;;;46.88;;
64826;SDS011;51265;53.972;12.286;2023-12-07T04:58:16;140.50;;;45.42;;
64826;SDS011;51265;53.972;12.286;2023-12-07T05:00:42;137.18;;;44.40;;
64826;SDS011;51265;53.972;12.286;2023-12-07T05:03:08;145.50;;;47.08;;
64826;SDS011;51265;53.972;12.286;2023-12-07T05:05:35;163.13;;;46.45;;
64826;SDS011;51265;53.972;12.286;2023-12-07T05:08:02;164.93;;;49.08;;
64826;SDS011;51265;53.972;12.286;2023-12-07T05:10:28;142.75;;;43.88;;
64826;SDS011;51265;53.972;12.286;2023-12-07T05:12:55;164.90;;;49.10;;
64826;SDS011;51265;53.972;12.286;2023-12-07T05:15:22;149.93;;;46.58;;
64826;SDS011;51265;53.972;12.286;2023-12-07T05:17:49;176.80;;;50.13;;
64826;SDS011;51265;53.972;12.286;2023-12-07T05:20:15;162.27;;;48.17;;
64826;SDS011;51265;53.972;12.286;2023-12-07T05:22:41;167.30;;;46.83;;
64826;SDS011;51265;53.972;12.286;2023-12-07T05:25:08;179.02;;;49.35;;
64826;SDS011;51265;53.972;12.286;2023-12-07T05:27:35;156.20;;;49.00;;
64826;SDS011;51265;53.972;12.286;2023-12-07T05:30:01;140.80;;;46.40;;
64826;SDS011;51265;53.972;12.286;2023-12-07T05:32:27;158.45;;;46.97;;
64826;SDS011;51265;53.972;12.286;2023-12-07T05:34:53;184.75;;;49.90;;
64826;SDS011;51265;53.972;12.286;2023-12-07T05:37:19;197.18;;;62.78;;
64826;SDS011;51265;53.972;12.286;2023-12-07T05:39:46;165.27;;;56.35;;
64826;SDS011;51265;53.972;12.286;2023-12-07T05:42:12;167.88;;;59.92;;
64826;SDS011;51265;53.972;12.286;2023-12-07T05:44:38;134.60;;;43.03;;
64826;SDS011;51265;53.972;12.286;2023-12-07T05:47:04;124.88;;;42.33;;
64826;SDS011;51265;53.972;12.286;2023-12-07T05:49:30;118.03;;;41.25;;
64826;SDS011;51265;53.972;12.286;2023-12-07T05:51:56;103.15;;;39.08;;
64826;SDS011;51265;53.972;12.286;2023-12-07T05:54:23;103.55;;;36.92;;
64826;SDS011;51265;53.972;12.286;2023-12-07T05:56:49;93.25;;;34.67;;
64826;SDS011;51265;53.972;12.286;2023-12-07T05:59:15;96.00;;;34.88;;
64826;SDS011;51265;53.972;12.286;2023-12-07T06:01:42;144.32;;;44.88;;
64826;SDS011;51265;53.972;12.286;2023-12-07T06:04:10;135.60;;;43.40;;
64826;SDS011;51265;53.972;12.286;2023-12-07T06:06:38;126.43;;;41.42;;
64826;SDS011;51265;53.972;12.286;2023-12-07T06:09:04;146.25;;;44.75;;
64826;SDS011;51265;53.972;12.286;2023-12-07T06:11:34;123.68;;;38.55;;
64826;SDS011;51265;53.972;12.286;2023-12-07T06:14:00;114.18;;;38.13;;
64826;SDS011;51265;53.972;12.286;2023-12-07T06:16:27;108.65;;;37.33;;
64826;SDS011;51265;53.972;12.286;2023-12-07T06:18:53;107.50;;;37.85;;
64826;SDS011;51265;53.972;12.286;2023-12-07T06:21:19;104.85;;;36.45;;
64826;SDS011;51265;53.972;12.286;2023-12-07T06:23:46;108.88;;;37.25;;
64826;SDS011;51265;53.972;12.286;2023-12-07T06:26:12;103.65;;;36.53;;
64826;SDS011;51265;53.972;12.286;2023-12-07T06:28:38;97.60;;;36.03;;
64826;SDS011;51265;53.972;12.286;2023-12-07T06:31:05;100.80;;;34.88;;
64826;SDS011;51265;53.972;12.286;2023-12-07T06:33:34;110.65;;;36.40;;
64826;SDS011;51265;53.972;12.286;2023-12-07T06:36:00;98.80;;;35.50;;
64826;SDS011;51265;53.972;12.286;2023-12-07T06:38:29;97.93;;;34.20;;
64826;SDS011;51265;53.972;12.286;2023-12-07T06:40:55;105.55;;;35.78;;
64826;SDS011;51265;53.972;12.286;2023-12-07T06:43:22;108.68;;;36.88;;
64826;SDS011;51265;53.972;12.286;2023-12-07T06:45:48;108.85;;;37.33;;
64826;SDS011;51265;53.972;12.286;2023-12-07T06:48:14;100.90;;;36.53;;
64826;SDS011;51265;53.972;12.286;2023-12-07T06:50:41;105.22;;;35.60;;
64826;SDS011;51265;53.972;12.286;2023-12-07T06:53:07;116.60;;;37.75;;
64826;SDS011;51265;53.972;12.286;2023-12-07T06:55:33;119.53;;;39.97;;
64826;SDS011;51265;53.972;12.286;2023-12-07T06:57:59;122.35;;;38.67;;
64826;SDS011;51265;53.972;12.286;2023-12-07T07:00:26;106.18;;;37.08;;
64826;SDS011;51265;53.972;12.286;2023-12-07T07:02:52;124.28;;;42.00;;
64826;SDS011;51265;53.972;12.286;2023-12-07T07:05:18;120.55;;;43.45;;
64826;SDS011;51265;53.972;12.286;2023-12-07T07:07:45;122.05;;;40.70;;
64826;SDS011;51265;53.972;12.286;2023-12-07T07:10:11;117.40;;;38.42;;
64826;SDS011;51265;53.972;12.286;2023-12-07T07:12:38;117.07;;;37.88;;
64826;SDS011;51265;53.972;12.286;2023-12-07T07:15:06;112.97;;;38.72;;
64826;SDS011;51265;53.972;12.286;2023-12-07T07:17:33;117.93;;;38.97;;
64826;SDS011;51265;53.972;12.286;2023-12-07T07:19:59;116.72;;;36.80;;
64826;SDS011;51265;53.972;12.286;2023-12-07T07:22:26;120.05;;;39.00;;
64826;SDS011;51265;53.972;12.286;2023-12-07T07:24:52;125.22;;;39.10;;
64826;SDS011;51265;53.972;12.286;2023-12-07T07:27:18;110.40;;;38.13;;
64826;SDS011;51265;53.972;12.286;2023-12-07T07:29:44;114.50;;;36.25;;
64826;SDS011;51265;53.972;12.286;2023-12-07T07:32:12;119.68;;;37.72;;
64826;SDS011;51265;53.972;12.286;2023-12-07T07:34:38;123.70;;;38.03;;
64826;SDS011;51265;53.972;12.286;2023-12-07T07:37:05;111.95;;;36.63;;
64826;SDS011;51265;53.972;12.286;2023-12-07T07:39:32;128.55;;;36.05;;
64826;SDS011;51265;53.972;12.286;2023-12-07T07:41:59;127.35;;;37.47;;
64826;SDS011;51265;53.972;12.286;2023-12-07T07:44:25;134.50;;;38.70;;
64826;SDS011;51265;53.972;12.286;2023-12-07T07:46:52;133.73;;;38.50;;
64826;SDS011;51265;53.972;12.286;2023-12-07T07:49:18;124.65;;;37.75;;
64826;SDS011;51265;53.972;12.286;2023-12-07T07:51:44;116.50;;;34.70;;
64826;SDS011;51265;53.972;12.286;2023-12-07T07:54:10;146.52;;;39.85;;
64826;SDS011;51265;53.972;12.286;2023-12-07T07:56:36;132.00;;;38.67;;
64826;SDS011;51265;53.972;12.286;2023-12-07T07:59:02;130.32;;;38.88;;
64826;SDS011;51265;53.972;12.286;2023-12-07T08:01:29;126.45;;;36.65;;
64826;SDS011;51265;53.972;12.286;2023-12-07T08:03:55;137.32;;;37.20;;
64826;SDS011;51265;53.972;12.286;2023-12-07T08:06:21;114.13;;;34.25;;
64826;SDS011;51265;53.972;12.286;2023-12-07T08:08:48;136.20;;;37.90;;
64826;SDS011;51265;53.972;12.286;2023-12-07T08:11:15;133.90;;;37.03;;
64826;SDS011;51265;53.972;12.286;2023-12-07T08:13:41;138.27;;;38.65;;
64826;SDS011;51265;53.972;12.286;2023-12-07T08:16:07;112.55;;;35.50;;
64826;SDS011;51265;53.972;12.286;2023-12-07T08:18:35;134.50;;;38.55;;
64826;SDS011;51265;53.972;12.286;2023-12-07T08:21:02;134.45;;;38.90;;
64826;SDS011;51265;53.972;12.286;2023-12-07T08:23:28;130.27;;;37.60;;
64826;SDS011;51265;53.972;12.286;2023-12-07T08:25:54;152.98;;;40.67;;
64826;SDS011;51265;53.972;12.286;2023-12-07T08:28:23;124.72;;;36.38;;
64826;SDS011;51265;53.972;12.286;2023-12-07T08:30:49;133.45;;;36.03;;
64826;SDS011;51265;53.972;12.286;2023-12-07T08:33:15;145.57;;;37.03;;
64826;SDS011;51265;53.972;12.286;2023-12-07T08:35:41;130.45;;;36.00;;
64826;SDS011;51265;53.972;12.286;2023-12-07T08:38:07;146.07;;;37.47;;
64826;SDS011;51265;53.972;12.286;2023-12-07T08:40:34;159.70;;;38.13;;
64826;SDS011;51265;53.972;12.286;2023-12-07T08:43:00;146.63;;;38.22;;
64826;SDS011;51265;53.972;12.286;2023-12-07T08:45:26;138.88;;;36.30;;
64826;SDS011;51265;53.972;12.286;2023-12-07T08:47:52;128.25;;;34.78;;
64826;SDS011;51265;53.972;12.286;2023-12-07T08:50:18;149.07;;;36.38;;
64826;SDS011;51265;53.972;12.286;2023-12-07T08:52:44;126.28;;;34.90;;
64826;SDS011;51265;53.972;12.286;2023-12-07T08:55:11;146.40;;;36.60;;
64826;SDS011;51265;53.972;12.286;2023-12-07T08:57:37;155.50;;;38.35;;
64826;SDS011;51265;53.972;12.286;2023-12-07T09:00:03;150.52;;;36.60;;
64826;SDS011;51265;53.972;12.286;2023-12-07T09:02:30;154.52;;;38.42;;
64826;SDS011;51265;53.972;12.286;2023-12-07T09:04:56;148.05;;;37.03;;
64826;SDS011;51265;53.972;12.286;2023-12-07T09:07:22;156.00;;;40.67;;
64826;SDS011;51265;53.972;12.286;2023-12-07T09:09:49;150.75;;;37.40;;
64826;SDS011;51265;53.972;12.286;2023-12-07T09:12:15;151.73;;;39.97;;
64826;SDS011;51265;53.972;12.286;2023-12-07T09:14:41;124.78;;;35.03;;
64826;SDS011;51265;53.972;12.286;2023-12-07T09:17:08;167.43;;;39.70;;
64826;SDS011;51265;53.972;12.286;2023-12-07T09:19:34;158.00;;;38.88;;
64826;SDS011;51265;53.972;12.286;2023-12-07T09:22:01;155.82;;;40.97;;
64826;SDS011;51265;53.972;12.286;2023-12-07T09:24:27;170.10;;;42.88;;
64826;SDS011;51265;53.972;12.286;2023-12-07T09:26:53;145.90;;;38.03;;
64826;SDS011;51265;53.972;12.286;2023-12-07T09:29:20;141.05;;;36.75;;
64826;SDS011;51265;53.972;12.286;2023-12-07T09:31:46;149.85;;;40.47;;
64826;SDS011;51265;53.972;12.286;2023-12-07T09:34:12;148.77;;;39.22;;
64826;SDS011;51265;53.972;12.286;2023-12-07T09:36:44;162.35;;;41.65;;
64826;SDS011;51265;53.972;12.286;2023-12-07T09:39:10;165.80;;;40.83;;
64826;SDS011;51265;53.972;12.286;2023-12-07T09:41:37;156.82;;;42.08;;
64826;SDS011;51265;53.972;12.286;2023-12-07T09:44:06;146.32;;;42.05;;
64826;SDS011;51265;53.972;12.286;2023-12-07T09:46:32;151.15;;;42.83;;
64826;SDS011;51265;53.972;12.286;2023-12-07T09:48:58;154.90;;;42.70;;
64826;SDS011;51265;53.972;12.286;2023-12-07T09:51:24;123.43;;;37.55;;
64826;SDS011;51265;53.972;12.286;2023-12-07T09:53:53;142.38;;;41.67;;
64826;SDS011;51265;53.972;12.286;2023-12-07T09:56:20;138.65;;;39.88;;
64826;SDS011;51265;53.972;12.286;2023-12-07T09:58:46;120.07;;;38.50;;
64826;SDS011;51265;53.972;12.286;2023-12-07T10:01:12;136.90;;;39.30;;
64826;SDS011;51265;53.972;12.286;2023-12-07T10:03:42;124.13;;;37.83;;
64826;SDS011;51265;53.972;12.286;2023-12-07T10:06:08;164.35;;;49.08;;
64826;SDS011;51265;53.972;12.286;2023-12-07T10:08:35;144.88;;;44.17;;
64826;SDS011;51265;53.972;12.286;2023-12-07T10:11:05;125.30;;;39.65;;
64826;SDS011;51265;53.972;12.286;2023-12-07T10:13:36;141.32;;;42.55;;
64826;SDS011;51265;53.972;12.286;2023-12-07T10:16:15;146.02;;;44.78;;
64826;SDS011;51265;53.972;12.286;2023-12-07T10:18:42;136.75;;;42.83;;
64826;SDS011;51265;53.972;12.286;2023-12-07T10:21:08;146.60;;;40.75;;
64826;SDS011;51265;53.972;12.286;2023-12-07T10:23:36;139.38;;;40.20;;
64826;SDS011;51265;53.972;12.286;2023-12-07T10:26:02;125.50;;;37.45;;
64826;SDS011;51265;53.972;12.286;2023-12-07T10:28:30;151.20;;;42.35;;
64826;SDS011;51265;53.972;12.286;2023-12-07T10:30:56;153.30;;;42.17;;
64826;SDS011;51265;53.972;12.286;2023-12-07T10:33:25;158.80;;;40.53;;
64826;SDS011;51265;53.972;12.286;2023-12-07T10:35:51;158.85;;;39.55;;
64826;SDS011;51265;53.972;12.286;2023-12-07T10:38:18;140.57;;;41.97;;
64826;SDS011;51265;53.972;12.286;2023-12-07T10:40:46;156.40;;;40.08;;
64826;SDS011;51265;53.972;12.286;2023-12-07T10:43:12;169.85;;;43.03;;
64826;SDS011;51265;53.972;12.286;2023-12-07T10:45:41;156.45;;;38.10;;
64826;SDS011;51265;53.972;12.286;2023-12-07T10:48:09;159.32;;;38.53;;
64826;SDS011;51265;53.972;12.286;2023-12-07T10:50:37;145.50;;;40.85;;
64826;SDS011;51265;53.972;12.286;2023-12-07T10:53:10;186.52;;;40.85;;
64826;SDS011;51265;53.972;12.286;2023-12-07T10:55:45;160.25;;;38.95;;
64826;SDS011;51265;53.972;12.286;2023-12-07T10:58:14;166.98;;;38.95;;
64826;SDS011;51265;53.972;12.286;2023-12-07T11:00:42;146.77;;;39.33;;
64826;SDS011;51265;53.972;12.286;2023-12-07T11:03:15;223.02;;;41.20;;
64826;SDS011;51265;53.972;12.286;2023-12-07T11:05:46;220.63;;;43.33;;
64826;SDS011;51265;53.972;12.286;2023-12-07T11:08:18;189.65;;;47.72;;
64826;SDS011;51265;53.972;12.286;2023-12-07T11:13:49;271.25;;;47.15;;
64826;SDS011;51265;53.972;12.286;2023-12-07T11:16:32;205.98;;;44.00;;
64826;SDS011;51265;53.972;12.286;2023-12-07T11:19:01;204.98;;;39.90;;
64826;SDS011;51265;53.972;12.286;2023-12-07T11:21:27;258.85;;;43.05;;
64826;SDS011;51265;53.972;12.286;2023-12-07T11:23:54;246.43;;;50.42;;
64826;SDS011;51265;53.972;12.286;2023-12-07T11:26:22;184.32;;;42.83;;
64826;SDS011;51265;53.972;12.286;2023-12-07T11:28:49;210.15;;;42.17;;
64826;SDS011;51265;53.972;12.286;2023-12-07T11:31:15;216.07;;;39.92;;
64826;SDS011;51265;53.972;12.286;2023-12-07T11:33:42;169.25;;;37.28;;
64826;SDS011;51265;53.972;12.286;2023-12-07T11:36:09;181.45;;;40.60;;
64826;SDS011;51265;53.972;12.286;2023-12-07T11:38:36;148.25;;;36.67;;
64826;SDS011;51265;53.972;12.286;2023-12-07T11:41:03;188.98;;;39.60;;
64826;SDS011;51265;53.972;12.286;2023-12-07T11:45:59;159.52;;;37.53;;
64826;SDS011;51265;53.972;12.286;2023-12-07T11:48:25;266.00;;;42.35;;
64826;SDS011;51265;53.972;12.286;2023-12-07T11:51:04;194.48;;;39.20;;
64826;SDS011;51265;53.972;12.286;2023-12-07T11:53:34;260.33;;;41.55;;
64826;SDS011;51265;53.972;12.286;2023-12-07T11:56:03;164.68;;;38.53;;
64826;SDS011;51265;53.972;12.286;2023-12-07T11:58:31;203.38;;;40.30;;
64826;SDS011;51265;53.972;12.286;2023-12-07T12:00:59;214.82;;;38.22;;
64826;SDS011;51265;53.972;12.286;2023-12-07T12:03:26;160.85;;;36.58;;
64826;SDS011;51265;53.972;12.286;2023-12-07T12:05:53;179.93;;;38.03;;
64826;SDS011;51265;53.972;12.286;2023-12-07T12:08:20;144.23;;;35.15;;
64826;SDS011;51265;53.972;12.286;2023-12-07T12:10:47;151.43;;;36.00;;
64826;SDS011;51265;53.972;12.286;2023-12-07T12:13:16;164.07;;;36.80;;
64826;SDS011;51265;53.972;12.286;2023-12-07T12:15:42;151.43;;;35.95;;
64826;SDS011;51265;53.972;12.286;2023-12-07T12:18:08;174.90;;;36.92;;
64826;SDS011;51265;53.972;12.286;2023-12-07T12:20:36;172.35;;;38.05;;
64826;SDS011;51265;53.972;12.286;2023-12-07T12:23:02;143.27;;;36.63;;
64826;SDS011;51265;53.972;12.286;2023-12-07T12:25:29;173.25;;;38.83;;
64826;SDS011;51265;53.972;12.286;2023-12-07T12:27:57;173.73;;;38.13;;
64826;SDS011;51265;53.972;12.286;2023-12-07T12:30:29;138.10;;;35.28;;
64826;SDS011;51265;53.972;12.286;2023-12-07T12:32:56;188.20;;;39.55;;
64826;SDS011;51265;53.972;12.286;2023-12-07T12:35:26;188.32;;;39.15;;
64826;SDS011;51265;53.972;12.286;2023-12-07T12:37:52;141.38;;;34.10;;
64826;SDS011;51265;53.972;12.286;2023-12-07T12:40:21;203.07;;;37.78;;
64826;SDS011;51265;53.972;12.286;2023-12-07T12:42:49;209.43;;;37.25;;
64826;SDS011;51265;53.972;12.286;2023-12-07T12:45:16;213.20;;;36.88;;
64826;SDS011;51265;53.972;12.286;2023-12-07T12:47:44;131.57;;;33.40;;
64826;SDS011;51265;53.972;12.286;2023-12-07T12:50:12;130.43;;;33.28;;
64826;SDS011;51265;53.972;12.286;2023-12-07T12:52:59;169.82;;;35.92;;
64826;SDS011;51265;53.972;12.286;2023-12-07T12:55:26;153.30;;;34.13;;
64826;SDS011;51265;53.972;12.286;2023-12-07T12:57:52;153.57;;;35.40;;
64826;SDS011;51265;53.972;12.286;2023-12-07T13:00:18;186.38;;;36.95;;
64826;SDS011;51265;53.972;12.286;2023-12-07T13:02:45;137.75;;;33.40;;
64826;SDS011;51265;53.972;12.286;2023-12-07T13:05:11;133.02;;;32.70;;
64826;SDS011;51265;53.972;12.286;2023-12-07T13:07:38;148.65;;;33.33;;
64826;SDS011;51265;53.972;12.286;2023-12-07T13:10:04;116.93;;;31.40;;
64826;SDS011;51265;53.972;12.286;2023-12-07T13:12:34;159.18;;;34.40;;
64826;SDS011;51265;53.972;12.286;2023-12-07T13:15:01;120.65;;;31.95;;
64826;SDS011;51265;53.972;12.286;2023-12-07T13:17:27;162.68;;;33.65;;
64826;SDS011;51265;53.972;12.286;2023-12-07T13:19:53;166.93;;;33.28;;
64826;SDS011;51265;53.972;12.286;2023-12-07T13:22:20;141.45;;;34.97;;
64826;SDS011;51265;53.972;12.286;2023-12-07T13:24:47;198.63;;;44.58;;
64826;SDS011;51265;53.972;12.286;2023-12-07T13:27:15;180.18;;;37.60;;
64826;SDS011;51265;53.972;12.286;2023-12-07T13:29:41;133.88;;;32.83;;
64826;SDS011;51265;53.972;12.286;2023-12-07T13:32:07;123.60;;;32.15;;
64826;SDS011;51265;53.972;12.286;2023-12-07T13:34:34;125.60;;;33.65;;
64826;SDS011;51265;53.972;12.286;2023-12-07T13:37:00;136.82;;;34.38;;
64826;SDS011;51265;53.972;12.286;2023-12-07T13:39:26;184.40;;;35.90;;
64826;SDS011;51265;53.972;12.286;2023-12-07T13:41:57;129.68;;;31.27;;
64826;SDS011;51265;53.972;12.286;2023-12-07T13:44:24;136.38;;;33.15;;
64826;SDS011;51265;53.972;12.286;2023-12-07T13:46:50;137.02;;;33.17;;
64826;SDS011;51265;53.972;12.286;2023-12-07T13:49:16;137.60;;;31.98;;
64826;SDS011;51265;53.972;12.286;2023-12-07T13:51:42;130.60;;;33.22;;
64826;SDS011;51265;53.972;12.286;2023-12-07T13:54:08;147.02;;;32.47;;
64826;SDS011;51265;53.972;12.286;2023-12-07T13:56:34;145.40;;;34.00;;
64826;SDS011;51265;53.972;12.286;2023-12-07T13:59:01;171.40;;;34.03;;
64826;SDS011;51265;53.972;12.286;2023-12-07T14:01:27;118.45;;;31.70;;
64826;SDS011;51265;53.972;12.286;2023-12-07T14:03:53;166.75;;;33.45;;